Time;durP1;ratioP1;P1;durP2;ratioP2;P2;SDS_P1;SDS_P2;PMS_P1;PMS_P2;Temp;Humidity;BMP_temperature;BMP_pressure;BME280_temperature;BME280_humidity;BME280_pressure;Samples;Min_cycle;Max_cycle;Signal;HPM_P1;HPM_P2
2022/01/17 00:00:20;;;;;;;14.10;6.70;;;;;;;1.21;77.17;99194.69;2612242;28;20053;-80
2022/01/17 00:01:55;;;;;;;15.32;7.13;;;;;;;1.16;77.46;99199.75;2612101;28;20048;-80
2022/01/17 00:03:12;;;;;;;15.52;6.97;;;;;;;1.20;77.22;99201.53;2612161;28;20052;-80
2022/01/17 00:04:27;;;;;;;19.38;7.88;;;;;;;1.14;77.46;99198.84;2612189;28;20337;-80
2022/01/17 00:05:43;;;;;;;17.92;7.95;;;;;;;1.25;76.53;99199.06;2611983;28;20045;-80
2022/01/17 00:06:58;;;;;;;20.15;7.90;;;;;;;1.24;77.09;99202.50;2611914;28;20048;-80
2022/01/17 00:08:16;;;;;;;15.88;7.28;;;;;;;1.21;77.25;99194.69;2612080;28;20045;-80
2022/01/17 00:09:31;;;;;;;17.92;8.32;;;;;;;1.15;77.40;99191.97;2612151;28;20519;-80
2022/01/17 00:10:47;;;;;;;19.10;8.38;;;;;;;1.19;77.22;99186.91;2611950;28;20049;-80
2022/01/17 00:12:03;;;;;;;18.42;8.32;;;;;;;1.19;77.30;99197.22;2612090;28;20530;-80
2022/01/17 00:13:27;;;;;;;14.73;8.07;;;;;;;1.18;77.26;99187.75;2612051;28;20040;-80
2022/01/17 00:14:44;;;;;;;13.93;6.15;;;;;;;1.20;77.30;99190.38;2612124;28;20053;-80
2022/01/17 00:16:20;;;;;;;14.98;7.10;;;;;;;1.21;77.33;99187.81;2611714;28;20052;-80
2022/01/17 00:17:39;;;;;;;15.93;8.13;;;;;;;1.20;77.70;99193.81;2611924;28;20045;-80
2022/01/17 00:20:26;;;;;;;16.10;7.75;;;;;;;1.19;77.50;99176.59;2611997;28;20053;-80
2022/01/17 00:21:42;;;;;;;16.13;7.80;;;;;;;1.19;77.18;99181.75;2611999;28;20119;-79
2022/01/17 00:22:57;;;;;;;17.38;7.40;;;;;;;1.20;77.36;99182.63;2610969;28;20389;-80
2022/01/17 00:24:13;;;;;;;21.65;8.40;;;;;;;1.25;77.47;99187.03;2611907;28;20049;-80
2022/01/17 00:25:29;;;;;;;16.67;7.65;;;;;;;1.23;77.45;99180.13;2612103;28;20049;-80
2022/01/17 00:26:47;;;;;;;16.80;7.30;;;;;;;1.27;77.35;99177.63;2611701;28;20111;-80
2022/01/17 00:28:02;;;;;;;16.52;7.57;;;;;;;1.21;77.42;99182.66;2612024;28;20048;-80
2022/01/17 00:29:18;;;;;;;19.40;8.63;;;;;;;1.20;77.70;99190.38;2611762;28;20091;-81
2022/01/17 00:30:34;;;;;;;19.58;8.27;;;;;;;1.21;77.74;99192.97;2611974;28;20052;-80
2022/01/17 00:31:49;;;;;;;20.02;8.98;;;;;;;1.18;78.06;99192.91;2611822;28;20052;-79
2022/01/17 00:33:05;;;;;;;22.35;9.63;;;;;;;1.18;77.86;99192.00;2611881;28;20049;-79
2022/01/17 00:34:20;;;;;;;21.27;9.43;;;;;;;1.15;77.86;99190.25;2612048;28;20179;-80
2022/01/17 00:35:37;;;;;;;14.65;6.93;;;;;;;1.16;77.92;99197.16;2611877;28;20053;-80
2022/01/17 00:36:53;;;;;;;21.85;9.65;;;;;;;1.19;77.57;99189.47;2611686;28;20045;-80
2022/01/17 00:38:11;;;;;;;18.77;8.07;;;;;;;1.19;77.88;99191.19;2611930;28;20056;-79
2022/01/17 00:39:26;;;;;;;15.18;7.78;;;;;;;1.23;77.61;99191.28;2611722;28;20542;-80
2022/01/17 00:40:43;;;;;;;15.15;7.57;;;;;;;1.24;77.49;99189.59;2611841;28;20053;-80
2022/01/17 00:41:58;;;;;;;18.92;7.78;;;;;;;1.26;77.59;99193.97;2611854;28;20056;-80
2022/01/17 00:43:14;;;;;;;20.45;8.55;;;;;;;1.29;77.48;99187.97;2611759;28;20049;-80
2022/01/17 00:44:30;;;;;;;18.60;7.68;;;;;;;1.28;77.70;99191.38;2611788;28;20045;-80
2022/01/17 00:45:46;;;;;;;18.30;10.38;;;;;;;1.31;77.43;99177.69;2611742;28;20055;-80
2022/01/17 00:47:01;;;;;;;13.80;7.25;;;;;;;1.33;77.28;99196.66;2611619;28;20075;-80
2022/01/17 00:48:17;;;;;;;18.60;8.05;;;;;;;1.30;77.53;99197.44;2611818;28;20045;-80
2022/01/17 00:49:32;;;;;;;21.85;10.02;;;;;;;1.34;77.48;99199.28;2611725;28;20077;-80
2022/01/17 00:50:48;;;;;;;18.27;8.75;;;;;;;1.33;77.42;99194.97;2611727;28;20049;-80
2022/01/17 00:52:04;;;;;;;14.65;6.88;;;;;;;1.38;77.30;99192.44;2611837;28;20411;-80
2022/01/17 00:53:20;;;;;;;20.92;7.70;;;;;;;1.36;77.42;99191.56;2611568;28;20049;-80
2022/01/17 00:54:36;;;;;;;23.13;10.43;;;;;;;1.32;77.57;99188.03;2611526;28;20083;-80
2022/01/17 00:55:51;;;;;;;22.48;9.95;;;;;;;1.34;77.09;99199.28;2610937;28;20091;-80
2022/01/17 00:57:07;;;;;;;22.20;9.57;;;;;;;1.37;77.62;99185.56;2610987;28;20053;-80
2022/01/17 00:58:23;;;;;;;18.40;7.90;;;;;;;1.34;77.34;99188.06;2611689;28;20186;-80
2022/01/17 00:59:38;;;;;;;10.75;5.40;;;;;;;1.33;77.42;99183.75;2611695;28;20045;-80
2022/01/17 01:00:54;;;;;;;18.80;9.15;;;;;;;1.32;77.27;99176.84;2611576;28;20056;-80
2022/01/17 01:02:09;;;;;;;18.33;8.02;;;;;;;1.34;77.58;99182.91;2611532;28;20045;-80
2022/01/17 01:03:25;;;;;;;22.67;10.20;;;;;;;1.34;77.38;99183.78;2611556;28;20045;-80
2022/01/17 01:04:40;;;;;;;20.17;9.02;;;;;;;1.31;77.78;99177.69;2611482;28;20049;-80
2022/01/17 01:05:56;;;;;;;19.55;8.25;;;;;;;1.32;77.51;99182.00;2611449;28;20084;-80
2022/01/17 01:07:12;;;;;;;18.77;8.45;;;;;;;1.31;77.70;99181.13;2611195;28;20636;-80
2022/01/17 01:08:27;;;;;;;23.63;9.18;;;;;;;1.34;77.53;99170.00;2611540;28;20045;-80
2022/01/17 01:09:55;;;;;;;24.67;10.15;;;;;;;1.30;77.71;99171.66;2611541;28;20052;-80
2022/01/17 01:11:11;;;;;;;17.48;8.23;;;;;;;1.36;77.26;99160.59;2611568;28;20045;-80
2022/01/17 01:12:27;;;;;;;22.38;10.13;;;;;;;1.36;77.26;99165.75;2611588;28;20498;-80
2022/01/17 01:13:42;;;;;;;15.52;6.70;;;;;;;1.36;77.28;99152.84;2611435;28;20060;-80
2022/01/17 01:14:59;;;;;;;20.02;9.15;;;;;;;1.37;77.10;99157.16;2611469;28;20048;-80
2022/01/17 01:17:36;;;;;;;20.88;9.93;;;;;;;1.35;77.52;99157.16;2611236;28;20051;-80
2022/01/17 01:27:43;;;;;;;16.30;6.78;;;;;;;1.48;76.50;99141.94;2611488;28;20052;-80
2022/01/17 01:28:59;;;;;;;20.15;8.90;;;;;;;1.41;76.99;99134.03;2611446;28;20407;-80
2022/01/17 01:30:17;;;;;;;18.98;8.75;;;;;;;1.43;76.84;99141.84;2611400;28;20068;-80
2022/01/17 01:31:53;;;;;;;22.42;9.05;;;;;;;1.44;77.10;99138.41;2611135;28;20055;-80
2022/01/17 01:33:09;;;;;;;16.20;7.68;;;;;;;1.46;76.85;99136.72;2611323;28;20080;-80
2022/01/17 01:34:47;;;;;;;14.57;8.00;;;;;;;1.48;76.68;99145.38;2611124;28;20044;-80
2022/01/17 01:36:18;;;;;;;16.92;6.53;;;;;;;1.46;76.72;99135.84;2611241;28;20048;-81
2022/01/17 01:37:34;;;;;;;16.00;7.93;;;;;;;1.50;76.75;99145.41;2611315;28;20123;-80
2022/01/17 01:38:50;;;;;;;20.77;9.00;;;;;;;1.54;76.69;99161.00;2611311;28;20049;-80
2022/01/17 01:40:06;;;;;;;16.92;8.23;;;;;;;1.51;76.45;99153.16;2611182;28;20068;-80
2022/01/17 01:41:22;;;;;;;19.67;7.53;;;;;;;1.49;76.84;99151.41;2611102;28;20048;-83
2022/01/17 01:42:38;;;;;;;19.73;7.88;;;;;;;1.51;76.61;99140.25;2611328;28;20053;-80
2022/01/17 01:43:54;;;;;;;13.90;7.18;;;;;;;1.53;76.71;99127.41;2611365;28;20111;-80
2022/01/17 01:45:12;;;;;;;19.88;8.20;;;;;;;1.53;76.89;99136.00;2611190;28;20118;-80
2022/01/17 01:46:27;;;;;;;15.43;7.45;;;;;;;1.49;76.77;99128.19;2611117;28;20479;-80
2022/01/17 01:47:43;;;;;;;18.73;8.40;;;;;;;1.51;76.86;99136.81;2611084;28;20357;-81
2022/01/17 01:48:59;;;;;;;18.27;8.82;;;;;;;1.49;76.89;99131.63;2611217;28;20047;-80
2022/01/17 01:50:15;;;;;;;16.83;7.50;;;;;;;1.54;76.65;99122.28;2611320;28;20494;-80
2022/01/17 01:51:30;;;;;;;20.35;8.80;;;;;;;1.49;77.03;99113.56;2611187;28;20048;-80
2022/01/17 01:52:46;;;;;;;15.07;6.22;;;;;;;1.50;76.82;99117.03;2611286;28;20079;-80
2022/01/17 01:54:03;;;;;;;21.98;9.00;;;;;;;1.52;76.94;99108.44;2611355;28;20057;-79
2022/01/17 01:55:21;;;;;;;17.98;8.23;;;;;;;1.52;76.67;99110.16;2611041;28;20048;-79
2022/01/17 01:56:44;;;;;;;16.05;8.13;;;;;;;1.50;76.91;99119.59;2611002;28;20068;-80
2022/01/17 01:58:00;;;;;;;16.95;8.70;;;;;;;1.52;76.91;99107.59;2611281;28;20041;-80
2022/01/17 01:59:20;;;;;;;13.07;6.13;;;;;;;1.51;77.04;99101.53;2611071;28;20048;-80
2022/01/17 02:00:36;;;;;;;13.32;7.40;;;;;;;1.51;77.06;99100.69;2610935;28;20056;-80
2022/01/17 02:01:52;;;;;;;13.70;6.50;;;;;;;1.55;76.76;99108.53;2610839;28;20045;-80
2022/01/17 02:03:08;;;;;;;14.63;7.47;;;;;;;1.50;77.01;99106.69;2611115;28;20045;-80
2022/01/17 02:04:23;;;;;;;14.65;7.57;;;;;;;1.49;77.15;99121.28;2610929;28;20053;-80
2022/01/17 02:05:40;;;;;;;15.82;6.72;;;;;;;1.57;76.65;99113.69;2611027;28;20921;-80
2022/01/17 02:06:55;;;;;;;17.40;7.35;;;;;;;1.59;76.77;99116.31;2610980;28;20158;-79
2022/01/17 02:08:12;;;;;;;11.73;5.55;;;;;;;1.55;76.75;99108.53;2611058;28;20075;-80
2022/01/17 02:09:28;;;;;;;17.33;6.93;;;;;;;1.53;77.04;99112.75;2610947;28;20609;-80
2022/01/17 02:10:44;;;;;;;13.20;7.00;;;;;;;1.55;76.99;99117.97;2610248;28;20048;-80
2022/01/17 02:11:59;;;;;;;17.90;8.88;;;;;;;1.59;76.80;99111.16;2610862;28;20488;-80
2022/01/17 02:13:15;;;;;;;13.93;6.75;;;;;;;1.55;76.99;99102.47;2610992;28;20083;-80
2022/01/17 02:14:31;;;;;;;15.25;7.22;;;;;;;1.54;76.91;99103.31;2611038;28;20045;-80
2022/01/17 02:15:47;;;;;;;19.65;9.00;;;;;;;1.57;76.93;99108.53;2610652;28;20115;-79
2022/01/17 02:17:04;;;;;;;17.17;7.90;;;;;;;1.58;76.87;99105.13;2610786;28;20072;-80
2022/01/17 02:18:29;;;;;;;19.08;8.88;;;;;;;1.54;77.13;99101.63;2610965;28;20041;-79
2022/01/17 02:19:46;;;;;;;14.57;7.45;;;;;;;1.53;77.30;99104.16;2610860;28;20415;-80
2022/01/17 02:22:31;;;;;;;13.65;6.15;;;;;;;1.55;77.44;99100.78;2611129;28;20408;-80
2022/01/17 02:23:51;;;;;;;10.70;5.03;;;;;;;1.55;77.35;99090.47;2610976;28;20472;-80
2022/01/17 02:25:08;;;;;;;18.45;8.00;;;;;;;1.57;77.37;99092.19;2610715;28;20049;-79
2022/01/17 02:26:24;;;;;;;14.60;7.05;;;;;;;1.51;77.59;99085.22;2610756;28;20499;-80
2022/01/17 02:27:40;;;;;;;15.57;8.07;;;;;;;1.49;77.85;99080.00;2610976;28;20053;-79
2022/01/17 02:28:57;;;;;;;14.35;7.25;;;;;;;1.52;77.52;99071.47;2610804;28;20055;-80
2022/01/17 02:30:16;;;;;;;12.93;6.00;;;;;;;1.51;77.75;99070.56;2610723;28;20052;-80
2022/01/17 02:31:32;;;;;;;17.38;7.45;;;;;;;1.52;77.81;99076.63;2610886;28;20045;-80
2022/01/17 02:32:48;;;;;;;12.93;5.95;;;;;;;1.52;78.09;99064.56;2610982;28;20540;-80
2022/01/17 02:34:03;;;;;;;16.60;7.15;;;;;;;1.52;77.93;99062.00;2610824;28;20180;-80
2022/01/17 02:35:22;;;;;;;18.30;7.72;;;;;;;1.54;77.84;99059.44;2610656;28;20090;-80
2022/01/17 02:36:38;;;;;;;17.33;7.68;;;;;;;1.55;78.05;99063.78;2610568;28;20128;-80
2022/01/17 02:37:53;;;;;;;11.55;6.32;;;;;;;1.55;78.10;99063.78;2610894;28;20045;-80
2022/01/17 02:39:09;;;;;;;16.40;7.15;;;;;;;1.53;78.21;99063.72;2610942;28;20404;-80
2022/01/17 02:40:25;;;;;;;12.68;5.88;;;;;;;1.58;77.88;99065.53;2610770;28;20049;-80
2022/01/17 02:41:43;;;;;;;17.20;8.30;;;;;;;1.61;77.86;99056.16;2610763;28;20048;-79
2022/01/17 02:43:03;;;;;;;13.30;6.35;;;;;;;1.56;78.06;99055.19;2610813;28;20041;-79
2022/01/17 02:44:19;;;;;;;15.73;7.10;;;;;;;1.58;78.00;99053.50;2610380;28;20048;-80
2022/01/17 02:45:38;;;;;;;13.43;6.47;;;;;;;1.59;78.02;99054.38;2611709;28;20072;-80
2022/01/17 02:46:54;;;;;;;12.75;6.72;;;;;;;1.59;77.90;99051.81;2614036;28;20404;-80
2022/01/17 02:48:09;;;;;;;14.10;6.15;;;;;;;1.59;78.17;99056.97;2614113;28;20087;-80
2022/01/17 02:49:25;;;;;;;15.85;7.15;;;;;;;1.58;78.34;99070.72;2614164;28;20045;-80
2022/01/17 02:50:41;;;;;;;15.45;7.55;;;;;;;1.57;78.59;99066.38;2614162;28;20048;-80
2022/01/17 02:51:57;;;;;;;11.40;6.53;;;;;;;1.57;78.45;99061.22;2614026;28;20047;-79
2022/01/17 02:53:13;;;;;;;16.25;7.85;;;;;;;1.63;78.21;99062.22;2614103;28;20047;-80
2022/01/17 02:54:29;;;;;;;12.10;6.00;;;;;;;1.56;78.46;99060.34;2614289;28;20045;-80
2022/01/17 02:55:50;;;;;;;13.38;5.97;;;;;;;1.61;78.24;99055.28;2614147;28;20052;-80
2022/01/17 02:57:07;;;;;;;13.23;6.20;;;;;;;1.61;78.28;99048.41;2614165;28;20068;-80
2022/01/17 02:58:25;;;;;;;14.68;7.07;;;;;;;1.68;78.21;99055.41;2614167;28;20507;-79
2022/01/17 02:59:40;;;;;;;15.25;7.65;;;;;;;1.63;78.31;99057.03;2614169;28;20048;-79
2022/01/17 03:00:57;;;;;;;16.67;7.45;;;;;;;1.68;78.05;99065.72;2614249;28;20053;-80
2022/01/17 03:02:13;;;;;;;13.73;7.03;;;;;;;1.73;77.77;99052.03;2614060;28;20432;-80
2022/01/17 03:03:30;;;;;;;12.43;6.22;;;;;;;1.70;78.04;99047.69;2614129;28;20052;-80
2022/01/17 03:04:45;;;;;;;15.80;7.43;;;;;;;1.72;77.95;99042.53;2613986;28;20122;-80
2022/01/17 03:06:02;;;;;;;10.88;6.13;;;;;;;1.73;77.81;99052.03;2614207;28;20542;-80
2022/01/17 03:07:18;;;;;;;13.52;7.22;;;;;;;1.76;77.63;99049.53;2614003;28;20040;-80
2022/01/17 03:08:34;;;;;;;13.95;6.18;;;;;;;1.77;77.68;99049.53;2614252;28;20053;-80
2022/01/17 03:10:02;;;;;;;13.82;6.05;;;;;;;1.74;77.65;99035.69;2614091;28;20557;-80
2022/01/17 03:11:24;;;;;;;14.77;6.55;;;;;;;1.73;77.84;99046.88;2614195;28;20576;-80
2022/01/17 03:12:39;;;;;;;16.73;7.53;;;;;;;1.72;78.14;99050.28;2614197;28;20041;-80
2022/01/17 03:13:55;;;;;;;17.33;7.25;;;;;;;1.77;77.63;99048.69;2614276;28;20460;-80
2022/01/17 03:15:13;;;;;;;12.70;6.93;;;;;;;1.72;77.90;99046.00;2613910;28;20049;-80
2022/01/17 03:16:32;;;;;;;17.23;7.70;;;;;;;1.75;77.93;99038.31;2614021;28;20052;-80
2022/01/17 03:17:47;;;;;;;10.00;5.28;;;;;;;1.74;77.87;99038.28;2613920;28;20040;-80
2022/01/17 03:19:03;;;;;;;14.70;7.15;;;;;;;1.75;77.76;99035.72;2614144;28;20049;-79
2022/01/17 03:20:18;;;;;;;15.20;6.93;;;;;;;1.74;77.62;99035.69;2613838;28;20049;-80
2022/01/17 03:21:35;;;;;;;18.25;8.45;;;;;;;1.73;78.20;99045.16;2614020;28;20514;-80
2022/01/17 03:22:51;;;;;;;11.82;6.40;;;;;;;1.77;77.86;99041.78;2613854;28;20411;-80
2022/01/17 03:24:07;;;;;;;14.70;7.18;;;;;;;1.77;77.84;99034.03;2614095;28;20045;-80
2022/01/17 03:25:23;;;;;;;11.60;4.95;;;;;;;1.78;77.65;99030.63;2613927;28;20045;-80
2022/01/17 03:26:39;;;;;;;11.98;6.05;;;;;;;1.78;77.77;99025.44;2613926;28;20045;-80
2022/01/17 03:27:54;;;;;;;12.48;5.82;;;;;;;1.81;77.40;99014.31;2614096;28;20384;-80
2022/01/17 03:29:10;;;;;;;10.23;5.78;;;;;;;1.83;77.49;99022.94;2614095;28;20056;-80
2022/01/17 03:30:27;;;;;;;10.63;5.00;;;;;;;1.81;77.37;99016.91;2613964;28;20045;-80
2022/01/17 03:31:42;;;;;;;10.00;5.13;;;;;;;1.84;77.55;99022.09;2613996;28;20056;-80
2022/01/17 03:32:58;;;;;;;8.43;4.65;;;;;;;1.87;77.25;99016.13;2613935;28;20423;-80
2022/01/17 03:34:13;;;;;;;16.38;7.25;;;;;;;1.85;77.08;99018.69;2613838;28;20483;-80
2022/01/17 03:35:29;;;;;;;12.93;5.57;;;;;;;1.86;77.42;99032.47;2613596;28;20076;-79
2022/01/17 03:36:45;;;;;;;12.13;6.00;;;;;;;1.82;77.85;99032.44;2613788;28;20049;-80
2022/01/17 03:38:01;;;;;;;11.00;5.03;;;;;;;1.86;77.46;99030.75;2614003;28;20169;-80
2022/01/17 03:39:17;;;;;;;13.07;7.38;;;;;;;1.90;77.38;99036.84;2613696;28;20049;-80
2022/01/17 03:40:33;;;;;;;10.45;4.72;;;;;;;1.89;77.68;99032.50;2613986;28;20052;-80
2022/01/17 03:41:49;;;;;;;9.50;5.53;;;;;;;1.88;77.56;99023.88;2613938;28;20085;-80
2022/01/17 03:43:05;;;;;;;8.38;4.45;;;;;;;1.86;77.88;99022.13;2613480;28;20094;-80
2022/01/17 03:44:20;;;;;;;15.32;9.10;;;;;;;1.88;77.59;99015.28;2614040;28;20128;-80
2022/01/17 03:45:36;;;;;;;11.50;5.35;;;;;;;1.91;77.65;99028.25;2613802;28;20454;-80
2022/01/17 03:46:51;;;;;;;10.95;6.25;;;;;;;1.91;77.47;99036.00;2613783;28;20056;-79
2022/01/17 03:48:07;;;;;;;11.02;6.10;;;;;;;1.88;77.69;99016.13;2613977;28;20045;-80
2022/01/17 03:49:23;;;;;;;14.52;6.00;;;;;;;1.86;77.90;99028.16;2613297;28;20045;-80
2022/01/17 03:50:38;;;;;;;12.90;6.15;;;;;;;1.85;78.03;99034.16;2613032;28;20043;-79
2022/01/17 03:51:54;;;;;;;16.02;8.93;;;;;;;1.90;77.67;99024.81;2613098;28;20161;-80
2022/01/17 03:53:10;;;;;;;10.35;4.82;;;;;;;1.88;77.94;99034.22;2613647;28;20049;-79
2022/01/17 03:54:26;;;;;;;11.52;5.22;;;;;;;1.86;78.10;99030.75;2613776;28;20385;-79
2022/01/17 03:55:41;;;;;;;12.77;6.18;;;;;;;1.89;77.77;99035.09;2613772;28;20419;-79
2022/01/17 03:57:00;;;;;;;14.88;9.18;;;;;;;1.91;77.88;99041.16;2613028;28;20044;-80
2022/01/17 03:58:15;;;;;;;16.58;8.55;;;;;;;1.91;77.73;99043.72;2611874;28;20510;-79
2022/01/17 03:59:31;;;;;;;12.43;6.82;;;;;;;1.90;77.79;99031.66;2611984;28;20059;-79
2022/01/17 04:00:48;;;;;;;15.63;8.88;;;;;;;1.88;77.98;99031.63;2611961;28;20048;-79
2022/01/17 04:02:03;;;;;;;13.48;7.05;;;;;;;1.87;78.08;99027.31;2612201;28;20057;-79
2022/01/17 04:03:19;;;;;;;8.70;5.05;;;;;;;1.85;78.14;99030.72;2611953;28;20140;-79
2022/01/17 04:04:34;;;;;;;13.35;7.10;;;;;;;1.86;78.10;99030.75;2611974;28;20491;-79
2022/01/17 04:05:51;;;;;;;13.32;6.57;;;;;;;1.85;78.18;99041.91;2611226;28;20049;-79
2022/01/17 04:07:07;;;;;;;10.32;5.43;;;;;;;1.87;78.23;99050.56;2611636;28;20048;-80
2022/01/17 04:08:23;;;;;;;12.40;5.28;;;;;;;1.84;78.34;99037.59;2612260;28;20052;-80
2022/01/17 04:09:38;;;;;;;13.65;6.28;;;;;;;1.82;78.64;99059.94;2612129;28;20464;-79
2022/01/17 04:10:54;;;;;;;9.82;5.97;;;;;;;1.77;78.58;99036.63;2612189;28;20056;-80
2022/01/17 04:12:10;;;;;;;11.15;6.65;;;;;;;1.79;78.65;99037.50;2612281;28;20052;-80
2022/01/17 04:13:25;;;;;;;10.00;6.57;;;;;;;1.75;78.73;99043.47;2612038;28;20165;-79
2022/01/17 04:14:41;;;;;;;12.02;6.40;;;;;;;1.73;78.96;99036.53;2612113;28;20048;-80
2022/01/17 04:15:56;;;;;;;10.93;5.68;;;;;;;1.73;78.93;99021.94;2611847;28;20077;-79
2022/01/17 04:17:12;;;;;;;12.60;7.20;;;;;;;1.74;79.39;99026.25;2611838;28;20360;-79
2022/01/17 04:18:28;;;;;;;10.27;6.05;;;;;;;1.69;79.09;99025.31;2612039;28;20535;-79
2022/01/17 04:19:48;;;;;;;11.73;5.85;;;;;;;1.69;79.13;99027.91;2612003;28;20132;-79
2022/01/17 04:21:04;;;;;;;11.32;6.75;;;;;;;1.69;79.23;99020.16;2612113;28;20059;-79
2022/01/17 04:22:20;;;;;;;12.63;5.15;;;;;;;1.65;79.30;99015.75;2611697;28;20064;-79
2022/01/17 04:23:35;;;;;;;10.63;5.43;;;;;;;1.63;79.47;99022.59;2611188;28;20404;-80
2022/01/17 04:24:51;;;;;;;14.75;6.13;;;;;;;1.63;79.46;99017.44;2610818;28;20052;-79
2022/01/17 04:26:07;;;;;;;11.93;6.13;;;;;;;1.62;79.46;99019.19;2611684;28;20120;-79
2022/01/17 04:27:23;;;;;;;13.88;6.38;;;;;;;1.63;79.32;99014.88;2612110;28;20057;-80
2022/01/17 04:28:38;;;;;;;15.55;7.53;;;;;;;1.66;79.46;99030.41;2612039;28;20053;-80
2022/01/17 04:29:54;;;;;;;11.50;6.10;;;;;;;1.66;79.42;99018.38;2612028;28;20049;-80
2022/01/17 04:31:09;;;;;;;12.73;6.28;;;;;;;1.65;79.39;99013.19;2612051;28;20041;-79
2022/01/17 04:32:25;;;;;;;10.63;6.35;;;;;;;1.67;79.43;99008.91;2611998;28;20079;-80
2022/01/17 04:33:41;;;;;;;12.70;6.88;;;;;;;1.65;79.59;99028.66;2611920;28;20446;-79
2022/01/17 04:34:56;;;;;;;12.25;5.97;;;;;;;1.66;79.55;99020.06;2611903;28;20126;-80
2022/01/17 04:36:12;;;;;;;13.45;5.25;;;;;;;1.65;79.38;99002.84;2611061;28;20053;-80
2022/01/17 04:37:28;;;;;;;12.88;6.95;;;;;;;1.69;79.21;99012.41;2611793;28;20056;-79
2022/01/17 04:38:43;;;;;;;13.73;5.47;;;;;;;1.70;79.07;99003.81;2611653;28;20056;-79
2022/01/17 04:39:59;;;;;;;12.20;6.30;;;;;;;1.76;78.77;99009.06;2611558;28;20415;-80
2022/01/17 04:41:18;;;;;;;11.23;6.40;;;;;;;1.79;78.51;99000.50;2612045;28;20415;-80
2022/01/17 04:42:34;;;;;;;9.65;5.30;;;;;;;1.80;78.53;98991.94;2611447;28;20056;-79
2022/01/17 04:45:10;;;;;;;9.85;4.72;;;;;;;1.83;78.31;98967.03;2611424;28;20045;-79
2022/01/17 04:46:26;;;;;;;11.65;6.43;;;;;;;1.82;78.43;98954.97;2610912;28;20045;-79
2022/01/17 04:47:45;;;;;;;9.88;5.88;;;;;;;1.83;78.25;98948.97;2611558;28;20081;-80
2022/01/17 04:49:00;;;;;;;9.93;5.72;;;;;;;1.82;78.31;98954.97;2611416;28;20102;-79
2022/01/17 04:50:19;;;;;;;15.30;5.72;;;;;;;1.81;78.38;98968.69;2611576;28;20075;-80
2022/01/17 04:51:36;;;;;;;9.65;5.50;;;;;;;1.81;78.20;98966.13;2611811;28;20049;-80
2022/01/17 04:52:57;;;;;;;8.80;5.35;;;;;;;1.87;78.01;98977.41;2611748;28;20049;-80
2022/01/17 04:54:39;;;;;;;10.85;6.40;;;;;;;1.88;78.10;98990.31;2610208;28;20048;-80
2022/01/17 04:55:55;;;;;;;8.73;4.43;;;;;;;1.88;78.05;98986.88;2611526;28;20048;-79
2022/01/17 04:57:12;;;;;;;13.38;5.88;;;;;;;1.87;78.42;98992.91;2610525;28;20052;-79
2022/01/17 04:58:28;;;;;;;10.18;4.75;;;;;;;1.86;78.12;99002.34;2605558;28;20076;-80
2022/01/17 04:59:44;;;;;;;13.27;5.68;;;;;;;1.93;77.78;98987.81;2605945;28;20065;-82
2022/01/17 05:00:59;;;;;;;11.35;5.20;;;;;;;1.93;77.71;98987.81;2600838;28;20052;-82
2022/01/17 05:02:16;;;;;;;11.75;5.80;;;;;;;1.93;77.79;98987.81;2609188;28;20088;-78
2022/01/17 05:03:32;;;;;;;10.25;4.97;;;;;;;1.94;77.62;98977.53;2611082;28;20103;-78
2022/01/17 05:04:48;;;;;;;10.45;5.30;;;;;;;1.94;77.64;98967.19;2611444;28;20049;-78
2022/01/17 05:06:04;;;;;;;10.73;5.85;;;;;;;1.93;77.81;98969.72;2611634;28;20045;-78
2022/01/17 05:07:19;;;;;;;10.32;5.93;;;;;;;1.90;77.53;98978.31;2611471;28;20466;-78
2022/01/17 05:08:35;;;;;;;10.35;5.68;;;;;;;1.91;77.79;98972.31;2610777;28;20055;-78
2022/01/17 05:09:51;;;;;;;12.27;4.38;;;;;;;1.91;77.95;98963.69;2611099;28;20044;-78
2022/01/17 05:11:06;;;;;;;9.52;5.15;;;;;;;1.90;77.88;98961.94;2611644;28;20487;-79
2022/01/17 05:12:22;;;;;;;7.95;4.50;;;;;;;1.93;77.77;98969.72;2611516;28;20049;-79
2022/01/17 05:13:45;;;;;;;11.70;4.75;;;;;;;1.93;77.70;98974.91;2611248;28;20072;-78
2022/01/17 05:15:01;;;;;;;8.60;4.07;;;;;;;1.93;77.98;98982.66;2611268;28;20049;-78
2022/01/17 05:16:19;;;;;;;10.63;5.03;;;;;;;1.91;77.87;98979.19;2611369;28;20593;-78
2022/01/17 05:17:42;;;;;;;12.00;6.07;;;;;;;1.90;78.01;98978.31;2611147;28;20052;-79
2022/01/17 05:20:32;;;;;;;9.43;4.10;;;;;;;1.92;77.79;98980.91;2611387;28;20052;-79
2022/01/17 05:21:47;;;;;;;7.32;4.35;;;;;;;1.91;77.88;98989.50;2611370;28;20045;-78
2022/01/17 05:23:03;;;;;;;7.68;4.18;;;;;;;1.91;77.82;98989.50;2611322;28;20049;-78
2022/01/17 05:24:20;;;;;;;11.23;5.75;;;;;;;1.91;77.84;98999.84;2611412;28;20060;-79
2022/01/17 05:25:37;;;;;;;10.88;5.97;;;;;;;1.86;78.22;99006.66;2611158;28;20056;-78
2022/01/17 05:26:52;;;;;;;12.57;6.70;;;;;;;1.85;78.37;99005.75;2611203;28;20056;-78
2022/01/17 05:28:08;;;;;;;13.93;6.15;;;;;;;1.85;78.32;98995.44;2611146;28;20506;-78
2022/01/17 05:29:23;;;;;;;10.25;5.07;;;;;;;1.92;77.79;98999.88;2611214;28;20132;-79
2022/01/17 05:30:39;;;;;;;12.93;5.90;;;;;;;1.91;78.03;98995.56;2611386;28;20513;-78
2022/01/17 05:31:55;;;;;;;6.70;3.97;;;;;;;1.88;77.76;99000.66;2611343;28;20498;-79
2022/01/17 05:33:10;;;;;;;7.65;5.22;;;;;;;1.98;77.40;99006.84;2611444;28;20103;-78
2022/01/17 05:34:26;;;;;;;8.55;5.05;;;;;;;1.99;77.13;98998.25;2611440;28;20057;-78
2022/01/17 05:35:42;;;;;;;11.63;4.93;;;;;;;1.97;77.31;99000.81;2611351;28;20797;-78
2022/01/17 05:36:58;;;;;;;10.18;4.57;;;;;;;1.94;77.50;98990.44;2611222;28;20106;-78
2022/01/17 05:38:13;;;;;;;10.75;4.78;;;;;;;1.95;77.52;98979.25;2611003;28;20512;-78
2022/01/17 05:39:29;;;;;;;9.20;4.55;;;;;;;2.02;77.11;99003.47;2611244;28;20071;-78
2022/01/17 05:40:44;;;;;;;12.27;6.93;;;;;;;2.03;76.89;98986.28;2611265;28;20050;-78
2022/01/17 05:42:00;;;;;;;7.07;4.20;;;;;;;2.04;76.76;98985.41;2611152;28;20044;-78
2022/01/17 05:43:15;;;;;;;9.15;5.05;;;;;;;2.07;76.65;98985.47;2611372;28;20048;-78
2022/01/17 05:44:32;;;;;;;9.40;4.88;;;;;;;2.06;76.64;98994.06;2611111;28;20057;-80
2022/01/17 05:45:47;;;;;;;8.68;5.40;;;;;;;2.07;76.64;98990.63;2611235;28;20045;-78
2022/01/17 05:47:03;;;;;;;9.05;4.65;;;;;;;2.06;76.82;98988.88;2611139;28;20052;-78
2022/01/17 05:48:19;;;;;;;6.82;4.35;;;;;;;2.05;76.90;98966.50;2611210;28;20049;-78
2022/01/17 05:49:35;;;;;;;7.88;4.88;;;;;;;2.04;76.68;98952.69;2611150;28;20053;-78
2022/01/17 05:50:50;;;;;;;9.48;5.18;;;;;;;2.02;76.88;98950.94;2611223;28;20120;-78
2022/01/17 05:52:06;;;;;;;9.38;4.57;;;;;;;2.03;76.73;98943.22;2610925;28;20435;-78
2022/01/17 05:53:22;;;;;;;9.98;5.88;;;;;;;2.02;76.71;98959.56;2611136;28;20167;-78
2022/01/17 05:54:39;;;;;;;8.85;3.97;;;;;;;2.05;76.54;98949.25;2611089;28;20053;-79
2022/01/17 05:55:55;;;;;;;6.93;4.25;;;;;;;2.05;76.58;98940.66;2610740;28;20055;-78
2022/01/17 05:57:10;;;;;;;7.90;4.40;;;;;;;2.02;76.70;98938.91;2610857;28;20053;-79
2022/01/17 05:58:26;;;;;;;7.93;4.05;;;;;;;2.05;76.49;98943.25;2611185;28;20509;-79
2022/01/17 05:59:42;;;;;;;7.47;4.32;;;;;;;2.05;76.57;98951.84;2611126;28;20091;-79
2022/01/17 06:00:57;;;;;;;8.98;5.63;;;;;;;2.05;76.43;98946.69;2610925;28;20048;-79
2022/01/17 06:02:13;;;;;;;6.43;3.88;;;;;;;2.03;76.63;98947.53;2610838;28;20051;-79
2022/01/17 06:03:28;;;;;;;9.43;4.72;;;;;;;2.03;76.67;98958.72;2611019;28;20606;-79
2022/01/17 06:04:44;;;;;;;7.88;4.43;;;;;;;2.04;76.70;98964.75;2611214;28;20056;-79
2022/01/17 06:06:03;;;;;;;7.75;4.15;;;;;;;2.03;76.79;98957.84;2611001;28;20049;-79
2022/01/17 06:07:19;;;;;;;9.13;4.05;;;;;;;2.02;76.63;98969.88;2610753;28;20064;-79
2022/01/17 06:08:34;;;;;;;10.20;4.78;;;;;;;2.02;76.62;98967.31;2611133;28;20140;-79
2022/01/17 06:09:50;;;;;;;7.03;4.20;;;;;;;2.03;76.51;98969.03;2610934;28;20049;-80
2022/01/17 06:11:07;;;;;;;7.07;4.55;;;;;;;2.03;76.39;98957.84;2610942;28;20041;-79
2022/01/17 06:12:22;;;;;;;9.70;4.13;;;;;;;2.00;76.59;98962.94;2610990;28;20041;-79
2022/01/17 06:13:38;;;;;;;8.63;3.85;;;;;;;2.03;76.50;98958.72;2611015;28;20079;-79
2022/01/17 06:14:54;;;;;;;8.90;4.43;;;;;;;2.04;76.46;98955.28;2610565;28;20057;-79
2022/01/17 06:16:09;;;;;;;8.07;3.97;;;;;;;2.06;76.32;98958.75;2610981;28;20472;-79
2022/01/17 06:17:25;;;;;;;6.30;3.53;;;;;;;2.05;76.17;98961.31;2610656;28;20067;-79